Terminal Aerodrome Forecast
Issued by NWS

Home | Current Version | Previous Version | Text Only | Print | Product List | Glossary On
Versions: 1 2 3 4 5 6 7 8 9 10 11 12 13 14 15 16 17 18 19 20 21 22 23 24 25
000
FTUS45 KVEF 231100
TAFLAS
TAF
KLAS 231128Z 2312/2412 33014G22KT P6SM BKN250
     FM231500 36009KT P6SM SCT250
     FM231900 04008KT P6SM SCT250
     FM240400 21007KT P6SM SCT250=

USA.gov is the U.S. government's official web portal to all federal, state and local government web resources and services.